Time;durP1;ratioP1;P1;durP2;ratioP2;P2;SDS_P1;SDS_P2;PMS_P1;PMS_P2;Temp;Humidity;BMP_temperature;BMP_pressure;BME280_temperature;BME280_humidity;BME280_pressure;Samples;Min_cycle;Max_cycle;Signal;HPM_P1;HPM_P2
2022/05/23 00:02:07;;;;;;;;;4.00;4.00;;;;;20.88;53.60;100096.25;5076469;27;45272;-73
2022/05/23 00:04:32;;;;;;;;;7.00;6.00;;;;;20.70;53.82;100079.44;5078348;27;45438;-73
2022/05/23 00:06:58;;;;;;;;;7.33;6.00;;;;;20.37;53.89;100026.94;5082615;28;45495;-73
2022/05/23 00:09:25;;;;;;;;;5.33;5.33;;;;;20.38;54.24;100033.13;5079595;27;46080;-71
2022/05/23 00:11:52;;;;;;;;;6.00;6.00;;;;;20.44;54.69;100062.94;5079809;27;45415;-71
2022/05/23 00:14:17;;;;;;;;;4.00;4.00;;;;;20.47;54.96;100069.91;5080971;28;45387;-69
2022/05/23 00:16:46;;;;;;;;;5.33;4.33;;;;;20.48;55.23;100079.63;5083617;27;45534;-71
2022/05/23 00:19:13;;;;;;;;;5.00;4.00;;;;;20.40;55.67;100071.16;5084480;27;45291;-73
2022/05/23 00:21:41;;;;;;;;;5.33;5.00;;;;;20.44;55.23;100070.06;5081758;27;45592;-72
2022/05/23 00:24:13;;;;;;;;;4.67;4.67;;;;;20.22;55.23;100023.25;5080665;27;45489;-72
2022/05/23 00:26:40;;;;;;;;;6.00;5.00;;;;;20.51;55.19;100064.38;5080395;27;45551;-68
2022/05/23 00:29:06;;;;;;;;;6.33;6.33;;;;;20.42;54.92;100038.22;5081526;28;46578;-72
2022/05/23 00:31:32;;;;;;;;;6.00;4.33;;;;;20.39;55.08;100026.88;5081009;27;45426;-69
2022/05/23 00:36:42;;;;;;;;;4.00;4.00;;;;;20.54;54.91;100026.09;5083619;28;45555;-72
2022/05/23 00:39:08;;;;;;;;;7.00;7.00;;;;;20.59;54.80;100029.41;5083983;27;45438;-74
2022/05/23 00:44:34;;;;;;;;;5.00;5.00;;;;;20.61;55.04;100019.56;5080884;28;45235;-73
2022/05/23 00:47:03;;;;;;;;;4.00;4.00;;;;;20.63;54.76;100015.03;5080755;28;45423;-68
2022/05/23 00:49:35;;;;;;;;;4.67;4.00;;;;;20.65;54.78;100010.50;5081182;27;45397;-71
2022/05/23 00:52:06;;;;;;;;;5.00;5.00;;;;;20.64;55.04;100016.75;5079770;27;45298;-71
2022/05/23 00:54:39;;;;;;;;;5.00;5.00;;;;;20.61;54.81;100013.38;5079436;28;45282;-71
2022/05/23 00:57:07;;;;;;;;;4.33;4.00;;;;;20.60;54.87;100001.91;5078508;28;45396;-70
2022/05/23 00:59:35;;;;;;;;;6.00;6.00;;;;;20.37;54.27;99959.63;5078168;28;46820;-72
2022/05/23 01:02:03;;;;;;;;;5.00;4.67;;;;;20.39;54.49;99960.41;5080367;27;45401;-72
2022/05/23 01:04:32;;;;;;;;;5.00;4.33;;;;;20.69;54.33;100020.06;5080172;27;45367;-73
2022/05/23 01:06:58;;;;;;;;;4.00;4.00;;;;;20.66;54.53;100016.66;5080330;27;45273;-72
2022/05/23 01:09:27;;;;;;;;;5.67;4.00;;;;;20.22;54.02;99908.94;5079951;28;46636;-70
2022/05/23 01:11:56;;;;;;;;;5.00;3.00;;;;;20.80;54.01;99986.69;5079726;27;45358;-72
2022/05/23 01:14:22;;;;;;;;;4.67;3.67;;;;;20.73;54.13;99968.38;5090021;27;45395;-72
2022/05/23 01:16:48;;;;;;;;;4.33;4.33;;;;;20.78;54.14;99964.63;5101163;27;45412;-72
2022/05/23 01:19:18;;;;;;;;;5.00;5.00;;;;;20.52;54.21;99914.47;5100465;27;46129;-71
2022/05/23 01:22:04;;;;;;;;;4.00;4.00;;;;;20.70;54.18;99938.41;5097580;27;45290;-72
2022/05/23 01:24:47;;;;;;;;;7.00;5.33;;;;;20.69;54.47;99932.25;5100257;27;45415;-71
2022/05/23 01:27:50;;;;;;;;;4.00;4.00;;;;;20.67;54.34;99910.16;5117200;27;45570;-73
2022/05/23 01:30:36;;;;;;;;;6.00;4.00;;;;;20.52;54.43;99873.69;5080127;28;46625;-72
2022/05/23 01:33:08;;;;;;;;;4.33;4.00;;;;;20.69;54.38;99908.28;5083427;27;45457;-72
2022/05/23 01:35:34;;;;;;;;;3.00;3.00;;;;;20.69;54.27;99912.72;5099612;27;45381;-72
2022/05/23 01:37:59;;;;;;;;;4.00;4.00;;;;;20.62;54.03;99895.38;5099667;27;45407;-72
2022/05/23 01:40:25;;;;;;;;;5.00;5.00;;;;;20.77;54.15;99912.34;5099468;27;46259;-71
2022/05/23 01:42:52;;;;;;;;;4.00;4.00;;;;;20.76;54.39;99908.81;5097873;27;45404;-69
2022/05/23 01:45:22;;;;;;;;;4.00;3.67;;;;;20.51;54.13;99854.22;5094831;27;45453;-71
2022/05/23 01:47:48;;;;;;;;;5.00;5.00;;;;;20.68;54.06;99871.97;5079301;27;45187;-70
2022/05/23 01:50:17;;;;;;;;;5.00;4.00;;;;;20.77;53.97;99869.78;5097438;27;45306;-71
2022/05/23 01:52:43;;;;;;;;;4.00;4.00;;;;;20.75;54.19;99859.19;5098661;27;45451;-71
2022/05/23 01:55:08;;;;;;;;;4.00;4.00;;;;;20.59;54.21;99839.69;5099112;27;45452;-73
2022/05/23 01:57:34;;;;;;;;;5.00;5.00;;;;;20.44;54.17;99814.72;5085645;27;45516;-72
2022/05/23 02:02:51;;;;;;;;;5.33;4.67;;;;;20.06;53.96;99759.97;5078650;28;45410;-71
2022/05/23 02:05:18;;;;;;;;;4.00;4.00;;;;;20.64;53.99;99849.13;5091802;27;45573;-71
2022/05/23 02:07:43;;;;;;;;;5.00;5.00;;;;;20.63;53.99;99842.09;5099908;27;45407;-71
2022/05/23 02:10:11;;;;;;;;;5.00;5.00;;;;;20.39;54.24;99809.66;5099252;27;46249;-74
2022/05/23 02:12:37;;;;;;;;;4.00;4.00;;;;;20.22;54.32;99786.63;5098436;27;45484;-73
2022/05/23 02:15:05;;;;;;;;;4.00;3.00;;;;;20.04;54.28;99763.66;5098507;27;45454;-73
2022/05/23 02:17:31;;;;;;;;;4.33;3.00;;;;;20.47;54.35;99860.63;5097153;27;45516;-71
2022/05/23 02:19:57;;;;;;;;;7.00;5.33;;;;;20.44;54.46;99855.47;5098708;27;45360;-73
2022/05/23 02:22:22;;;;;;;;;4.00;4.00;;;;;19.71;54.68;99745.88;5098441;27;45547;-73
2022/05/23 02:24:48;;;;;;;;;4.67;4.67;;;;;20.45;54.52;99861.66;5098478;27;45361;-73
2022/05/23 02:27:14;;;;;;;;;5.00;5.00;;;;;20.41;54.54;99849.47;5098698;27;45553;-72
2022/05/23 02:29:39;;;;;;;;;4.00;4.00;;;;;20.52;54.30;99879.91;5098658;27;46081;-72
2022/05/23 02:32:05;;;;;;;;;6.00;6.00;;;;;20.55;54.08;99876.22;5098078;27;45273;-72
2022/05/23 02:34:31;;;;;;;;;3.00;3.00;;;;;20.38;54.49;99844.31;5098469;27;45436;-72
2022/05/23 02:36:57;;;;;;;;;3.00;3.00;;;;;20.61;54.21;99880.38;5097988;27;45434;-73
2022/05/23 02:39:23;;;;;;;;;5.67;4.00;;;;;20.51;54.29;99872.84;5098121;27;45355;-73
2022/05/23 02:41:50;;;;;;;;;4.00;4.00;;;;;20.40;54.23;99847.75;5098297;27;45359;-72
2022/05/23 02:44:17;;;;;;;;;6.00;3.33;;;;;20.41;54.45;99858.31;5098204;27;45442;-73
2022/05/23 02:46:42;;;;;;;;;5.67;5.67;;;;;20.07;54.13;99795.41;5114463;27;45452;-72
2022/05/23 02:49:08;;;;;;;;;5.00;5.00;;;;;20.42;54.30;99861.81;5113835;27;47008;-72
2022/05/23 02:51:34;;;;;;;;;2.00;2.00;;;;;20.23;54.47;99843.31;5097910;27;45499;-72
2022/05/23 02:54:00;;;;;;;;;4.00;4.00;;;;;20.47;54.28;99867.75;5114302;27;45438;-72
2022/05/23 02:56:26;;;;;;;;;5.00;4.00;;;;;20.33;54.28;99837.44;5098239;27;45291;-73
2022/05/23 02:58:52;;;;;;;;;3.33;3.33;;;;;20.43;54.51;99835.16;5096453;27;48126;-72
2022/05/23 03:01:18;;;;;;;;;3.00;3.00;;;;;20.61;54.22;99872.38;5097404;27;45525;-72
2022/05/23 03:03:43;;;;;;;;;4.00;4.00;;;;;20.49;54.50;99856.09;5097996;27;45320;-73
2022/05/23 03:06:09;;;;;;;;;4.00;4.00;;;;;20.33;54.43;99831.25;5098634;27;45432;-72
2022/05/23 03:08:36;;;;;;;;;3.33;3.33;;;;;20.49;54.47;99868.53;5097705;27;46058;-74
2022/05/23 03:11:04;;;;;;;;;3.67;3.67;;;;;20.55;54.48;99889.50;5098229;27;45492;-71
2022/05/23 03:13:30;;;;;;;;;3.00;3.00;;;;;20.46;54.46;99880.22;5098039;27;45396;-71
2022/05/23 03:15:56;;;;;;;;;5.00;5.00;;;;;20.59;54.22;99901.72;5098103;27;45412;-72
2022/05/23 03:18:24;;;;;;;;;4.00;3.33;;;;;20.60;54.17;99898.13;5097503;27;46310;-72
2022/05/23 03:21:00;;;;;;;;;5.33;4.00;;;;;20.60;54.39;99898.13;5096516;27;45452;-74
2022/05/23 03:29:01;;;;;;;;;5.67;4.00;;;;;20.18;54.39;99811.66;5100042;27;45582;-74
2022/05/23 03:31:28;;;;;;;;;4.33;3.00;;;;;20.22;54.69;99809.72;5099195;27;45356;-72
2022/05/23 03:33:54;;;;;;;;;4.00;3.00;;;;;20.41;54.39;99837.03;5099356;27;45461;-74
2022/05/23 03:36:21;;;;;;;;;4.67;4.67;;;;;20.38;54.53;99828.34;5100769;27;45346;-74
2022/05/23 03:38:46;;;;;;;;;4.00;3.67;;;;;20.01;54.71;99771.81;5099046;27;45333;-74
2022/05/23 03:41:12;;;;;;;;;5.67;4.33;;;;;19.89;54.65;99728.13;5102683;27;45450;-74
2022/05/23 03:43:38;;;;;;;;;4.00;4.00;;;;;20.49;55.00;99818.00;5102765;27;45313;-72
2022/05/23 03:46:09;;;;;;;;;5.33;5.33;;;;;20.46;55.26;99820.84;5104538;27;45312;-72
2022/05/23 03:48:36;;;;;;;;;5.33;5.33;;;;;20.39;55.54;99824.75;5101989;27;46058;-69
2022/05/23 03:51:05;;;;;;;;;8.00;5.00;;;;;20.40;55.80;99826.47;5103720;27;45590;-74
2022/05/23 03:53:31;;;;;;;;;6.00;4.33;;;;;20.39;55.76;99822.97;5101515;27;45366;-73
2022/05/23 03:56:00;;;;;;;;;6.00;5.00;;;;;19.98;55.77;99764.84;5102012;27;45365;-74
2022/05/23 03:58:28;;;;;;;;;5.67;5.67;;;;;20.30;56.17;99811.00;5105948;27;45663;-74
2022/05/23 04:01:07;;;;;;;;;5.00;4.00;;;;;20.30;55.94;99818.97;5107336;27;45383;-74
2022/05/23 04:03:33;;;;;;;;;4.00;4.00;;;;;20.32;56.39;99829.53;5104352;27;45274;-73
2022/05/23 04:06:00;;;;;;;;;5.00;5.00;;;;;20.26;56.43;99819.22;5103338;27;45298;-74
2022/05/23 04:08:26;;;;;;;;;6.00;5.00;;;;;20.32;56.31;99817.09;5101483;27;45519;-74
2022/05/23 04:10:51;;;;;;;;;5.00;5.00;;;;;19.97;56.76;99748.97;5117142;27;45480;-74
2022/05/23 04:13:17;;;;;;;;;5.33;5.00;;;;;20.19;56.63;99768.16;5103226;27;45381;-72
2022/05/23 04:15:43;;;;;;;;;7.00;7.00;;;;;19.99;56.71;99733.81;5100593;27;45425;-73
2022/05/23 04:18:09;;;;;;;;;5.00;5.00;;;;;20.15;56.72;99766.63;5100488;27;45448;-73
2022/05/23 04:20:34;;;;;;;;;6.00;6.00;;;;;20.24;56.52;99782.09;5100712;27;45303;-73
2022/05/23 04:23:00;;;;;;;;;4.67;4.67;;;;;20.12;57.01;99762.34;5100598;27;45262;-71
2022/05/23 04:25:26;;;;;;;;;10.00;9.00;;;;;19.76;57.15;99709.31;5100686;27;45464;-72
2022/05/23 04:27:52;;;;;;;;;5.67;5.00;;;;;19.83;57.27;99720.47;5100228;27;46510;-73
2022/05/23 04:30:17;;;;;;;;;5.00;5.00;;;;;19.89;57.92;99738.75;5100282;27;45498;-71
2022/05/23 04:35:27;;;;;;;;;6.00;4.00;;;;;19.99;58.35;99729.34;5100286;27;45813;-74
2022/05/23 04:37:54;;;;;;;;;6.00;6.00;;;;;19.99;58.78;99708.09;5100015;27;46215;-74
2022/05/23 04:40:28;;;;;;;;;9.00;7.67;;;;;19.83;58.95;99672.66;5100236;27;45496;-72
2022/05/23 04:42:54;;;;;;;;;10.67;6.00;;;;;19.93;59.12;99679.19;5100048;27;45455;-73
2022/05/23 04:45:19;;;;;;;;;7.67;6.67;;;;;19.90;59.46;99677.53;5103503;27;45554;-75
2022/05/23 04:50:34;;;;;;;;;6.00;6.00;;;;;20.01;59.15;99738.13;5103902;27;45546;-76
2022/05/23 04:53:01;;;;;;;;;6.00;4.67;;;;;20.16;58.88;99744.41;5102341;27;45435;-70
2022/05/23 04:55:27;;;;;;;;;6.33;5.33;;;;;20.12;58.97;99721.56;5098246;27;45511;-73
2022/05/23 04:57:58;;;;;;;;;4.00;4.00;;;;;20.21;58.73;99730.88;5089889;27;48446;-73
2022/05/23 05:00:24;;;;;;;;;5.00;5.00;;;;;20.09;58.34;99698.69;5098925;27;45491;-73
2022/05/23 05:02:59;;;;;;;;;6.50;6.00;;;;;20.40;58.84;99736.91;5098116;27;45399;-75
2022/05/23 05:05:27;;;;;;;;;8.67;5.33;;;;;20.24;58.79;99682.84;5099664;27;45411;-75
2022/05/23 05:07:54;;;;;;;;;7.00;7.00;;;;;20.50;58.66;99721.28;5094121;27;46207;-73
2022/05/23 05:10:23;;;;;;;;;7.00;7.00;;;;;20.14;58.90;99666.53;5084680;27;45934;-73
2022/05/23 05:12:56;;;;;;;;;6.33;6.33;;;;;20.43;58.56;99699.53;5088357;27;45427;-74
2022/05/23 05:15:24;;;;;;;;;10.00;8.00;;;;;20.46;58.76;99688.69;5100204;27;45464;-72
2022/05/23 05:17:51;;;;;;;;;8.67;8.00;;;;;20.40;59.35;99706.78;5095766;27;46539;-74
2022/05/23 05:20:20;;;;;;;;;8.33;8.33;;;;;20.14;59.50;99671.84;5087984;27;45417;-73
2022/05/23 05:22:46;;;;;;;;;8.33;7.00;;;;;20.21;59.02;99691.00;5079636;27;45391;-73
2022/05/23 05:25:14;;;;;;;;;11.00;9.00;;;;;20.24;59.27;99696.13;5098841;27;45434;-72
2022/05/23 05:27:41;;;;;;;;;7.67;7.67;;;;;20.12;59.04;99663.09;5099432;27;45517;-71
2022/05/23 05:30:10;;;;;;;;;9.00;7.33;;;;;20.29;59.47;99694.97;5100726;27;45384;-73
2022/05/23 05:33:04;;;;;;;;;9.00;7.67;;;;;20.24;59.84;99699.66;5104602;27;45333;-70
2022/05/23 05:35:35;;;;;;;;;9.00;9.00;;;;;20.18;59.62;99696.47;5093179;27;45356;-74
2022/05/23 05:38:14;;;;;;;;;9.33;8.33;;;;;20.13;59.94;99702.03;5099840;27;45535;-73
2022/05/23 05:40:42;;;;;;;;;8.67;7.33;;;;;20.16;59.64;99717.81;5108045;27;45585;-73
2022/05/23 05:43:26;;;;;;;;;7.33;7.33;;;;;19.98;60.24;99724.13;5108734;27;45390;-75
2022/05/23 05:46:03;;;;;;;;;8.00;7.67;;;;;19.91;60.28;99713.81;5096139;27;45630;-73
2022/05/23 05:48:30;;;;;;;;;9.00;8.33;;;;;20.07;60.26;99729.81;5098034;27;45761;-75
2022/05/23 05:50:57;;;;;;;;;6.00;6.00;;;;;19.99;60.19;99700.13;5098444;27;45561;-72
2022/05/23 05:53:27;;;;;;;;;7.33;7.00;;;;;20.09;60.26;99701.34;5095876;27;45491;-72
2022/05/23 05:55:53;;;;;;;;;8.67;6.67;;;;;20.07;59.99;99671.34;5096171;27;45380;-74
2022/05/23 05:58:19;;;;;;;;;0.00;0.00;;;;;20.38;59.93;99698.88;5098074;27;46253;-73
2022/05/23 06:00:45;;;;;;;;;7.67;7.67;;;;;20.30;59.98;99686.03;5102814;27;45471;-72
2022/05/23 06:03:11;;;;;;;;;7.00;7.00;;;;;20.37;59.71;99691.00;5114235;27;46268;-74
2022/05/23 06:11:23;;;;;;;;;8.33;7.33;;;;;20.50;59.80;99710.66;5110991;27;45382;-74
2022/05/23 06:11:24;;;;;;;;;8.00;8.00;;;;;20.27;60.03;99698.66;5092999;27;45415;-71
2022/05/23 06:13:59;;;;;;;;;7.00;7.00;;;;;20.39;60.50;99723.72;5077952;27;45479;-71
2022/05/23 06:16:34;;;;;;;;;9.00;8.00;;;;;20.17;60.12;99686.78;5109496;27;45580;-74
2022/05/23 06:19:00;;;;;;;;;11.00;8.67;;;;;20.37;60.48;99733.56;5082477;27;45637;-70
2022/05/23 06:21:26;;;;;;;;;8.67;7.00;;;;;20.28;60.79;99727.78;5102111;27;45422;-72
2022/05/23 06:23:53;;;;;;;;;8.00;7.33;;;;;20.15;60.94;99713.47;5098928;27;45581;-69
2022/05/23 06:26:22;;;;;;;;;6.67;6.67;;;;;20.23;60.93;99708.56;5104224;27;45543;-72
2022/05/23 06:28:49;;;;;;;;;9.00;9.00;;;;;19.94;61.05;99658.81;5106277;27;46350;-74
2022/05/23 06:31:18;;;;;;;;;6.33;6.33;;;;;20.26;61.26;99704.88;5092711;27;45574;-70
2022/05/23 06:33:44;;;;;;;;;6.33;6.33;;;;;20.28;61.17;99679.94;5106897;27;45652;-74
2022/05/23 06:36:12;;;;;;;;;8.00;7.00;;;;;19.78;61.03;99573.72;5115099;27;45319;-76
2022/05/23 06:38:39;;;;;;;;;6.33;6.33;;;;;20.07;60.48;99610.22;5092721;27;45479;-74
2022/05/23 06:41:06;;;;;;;;;5.00;5.00;;;;;20.48;61.23;99662.03;5092572;27;45916;-74
2022/05/23 06:43:33;;;;;;;;;6.00;6.00;;;;;20.33;61.06;99643.34;5100598;27;45218;-68
2022/05/23 06:46:02;;;;;;;;;6.33;5.33;;;;;20.16;61.27;99610.63;5100937;27;45511;-74
2022/05/23 06:48:29;;;;;;;;;7.00;7.00;;;;;20.42;61.33;99679.16;5090662;27;45634;-74
2022/05/23 06:50:55;;;;;;;;;9.00;7.00;;;;;20.32;61.41;99659.34;5096906;27;45502;-74
2022/05/23 06:53:23;;;;;;;;;11.33;7.00;;;;;20.00;61.52;99599.97;5097114;27;45445;-73
2022/05/23 06:55:49;;;;;;;;;8.67;6.33;;;;;20.38;61.96;99671.44;5096840;27;45274;-76
2022/05/23 06:58:17;;;;;;;;;7.33;7.33;;;;;20.24;62.01;99653.59;5101498;27;46186;-71
2022/05/23 07:00:43;;;;;;;;;8.00;6.00;;;;;19.74;61.87;99582.81;5092701;27;45510;-75
2022/05/23 07:03:09;;;;;;;;;6.67;6.67;;;;;20.25;62.14;99658.84;5089808;27;45537;-73
2022/05/23 07:13:53;;;;;;;;;10.33;8.67;;;;;20.10;63.28;99665.84;5121533;27;45462;-73
2022/05/23 07:16:18;;;;;;;;;8.33;8.33;;;;;20.12;63.20;99668.41;5107396;27;45348;-76
2022/05/23 07:18:45;;;;;;;;;12.33;10.67;;;;;20.14;63.31;99671.84;5106580;27;45711;-75
2022/05/23 07:21:11;;;;;;;;;15.33;14.00;;;;;19.90;63.43;99636.84;5109257;27;45443;-76
2022/05/23 07:23:38;;;;;;;;;14.33;14.00;;;;;19.98;64.11;99642.59;5098935;27;45291;-74
2022/05/23 07:26:06;;;;;;;;;14.33;11.67;;;;;20.03;64.08;99651.19;5098045;27;45360;-72
2022/05/23 07:28:32;;;;;;;;;13.67;13.67;;;;;20.07;64.01;99676.66;5097600;27;46057;-73
2022/05/23 07:30:58;;;;;;;;;11.00;10.00;;;;;20.04;64.24;99687.44;5098782;27;45889;-73
2022/05/23 07:33:29;;;;;;;;;13.00;8.67;;;;;19.90;64.39;99661.59;5114928;27;45705;-74
2022/05/23 07:35:57;;;;;;;;;9.00;9.00;;;;;19.91;64.61;99647.38;5111469;27;45316;-73
2022/05/23 07:38:23;;;;;;;;;13.33;13.33;;;;;19.97;64.39;99663.94;5123475;27;45773;-69
2022/05/23 07:40:50;;;;;;;;;12.33;9.67;;;;;19.94;64.62;99666.78;5108082;27;45351;-75
2022/05/23 07:43:17;;;;;;;;;8.67;8.67;;;;;19.88;64.49;99638.72;5099171;27;45511;-70
2022/05/23 07:45:43;;;;;;;;;12.67;10.67;;;;;20.19;64.26;99656.50;5131283;27;45467;-70
2022/05/23 07:48:08;;;;;;;;;8.00;8.00;;;;;20.38;64.00;99624.44;5102575;27;47218;-74
2022/05/23 07:50:34;;;;;;;;;7.33;6.33;;;;;20.58;63.54;99619.84;5101004;27;45554;-69
2022/05/23 08:01:15;;;;;;;;;11.00;10.33;;;;;20.87;63.10;99591.53;5112488;27;45406;-74
2022/05/23 08:03:41;;;;;;;;;12.67;12.33;;;;;20.80;63.41;99587.53;5106685;27;45564;-71
2022/05/23 08:06:09;;;;;;;;;10.00;10.00;;;;;20.93;63.54;99613.31;5108085;27;45507;-73
2022/05/23 08:08:34;;;;;;;;;13.00;12.33;;;;;20.87;63.68;99607.50;5096683;27;46396;-74
2022/05/23 08:11:00;;;;;;;;;13.33;11.00;;;;;20.86;64.20;99611.13;5097190;27;45279;-74
2022/05/23 08:13:26;;;;;;;;;13.33;13.33;;;;;20.84;64.20;99608.53;5096715;27;45526;-69
2022/05/23 08:15:52;;;;;;;;;11.00;10.33;;;;;20.90;64.30;99610.81;5096870;27;45357;-70
2022/05/23 08:18:18;;;;;;;;;12.00;10.00;;;;;20.84;64.77;99578.41;5097165;27;45409;-69
2022/05/23 08:20:44;;;;;;;;;11.00;10.33;;;;;21.10;64.48;99603.50;5102773;27;45457;-74
2022/05/23 08:23:14;;;;;;;;;10.33;10.33;;;;;21.12;64.76;99618.44;5118269;27;45461;-74
2022/05/23 08:25:40;;;;;;;;;10.00;9.67;;;;;21.18;64.76;99630.50;5107048;27;45234;-73
2022/05/23 08:28:06;;;;;;;;;14.67;11.67;;;;;21.10;64.92;99625.63;5096586;27;45767;-75
2022/05/23 08:30:32;;;;;;;;;16.00;13.67;;;;;21.00;64.87;99616.50;5094736;27;45795;-70
2022/05/23 08:32:57;;;;;;;;;13.33;12.00;;;;;21.09;64.95;99634.56;5105806;27;45693;-72
2022/05/23 08:35:24;;;;;;;;;14.00;10.33;;;;;20.90;65.00;99604.66;5119264;27;45335;-75
2022/05/23 08:37:52;;;;;;;;;10.33;10.00;;;;;21.04;65.16;99626.00;5108637;27;45966;-73
2022/05/23 08:40:18;;;;;;;;;10.00;8.67;;;;;21.07;65.13;99620.50;5100208;27;45491;-73
2022/05/23 08:42:58;;;;;;;;;8.67;6.67;;;;;20.82;65.00;99559.88;5100152;27;45356;-68
2022/05/23 08:45:53;;;;;;;;;11.00;11.00;;;;;21.27;65.10;99626.44;5100276;27;45411;-71
2022/05/23 08:49:09;;;;;;;;;8.00;8.00;;;;;21.18;65.04;99582.56;5081042;27;46346;-72
2022/05/23 08:51:59;;;;;;;;;10.00;10.00;;;;;21.19;65.15;99581.66;5068340;27;45553;-73
2022/05/23 08:54:31;;;;;;;;;11.67;10.00;;;;;20.88;64.13;99532.91;5100045;27;45420;-73
2022/05/23 08:57:01;;;;;;;;;12.00;8.00;;;;;21.18;63.86;99591.41;5079719;27;45251;-72
2022/05/23 08:59:37;;;;;;;;;10.33;10.33;;;;;21.20;63.59;99598.47;5085954;27;45965;-73
2022/05/23 09:02:19;;;;;;;;;10.67;10.00;;;;;21.37;62.89;99630.25;5103767;27;45540;-76
2022/05/23 09:04:55;;;;;;;;;14.00;13.33;;;;;21.20;62.53;99611.78;5102232;27;45342;-73
2022/05/23 09:07:38;;;;;;;;;9.00;9.00;;;;;21.28;63.13;99631.66;5119197;27;45399;-72
2022/05/23 09:10:10;;;;;;;;;9.00;8.33;;;;;21.12;62.84;99612.25;5099757;27;46118;-75
2022/05/23 09:12:35;;;;;;;;;7.33;7.00;;;;;21.16;62.87;99622.59;5100159;27;45325;-74
2022/05/23 09:15:12;;;;;;;;;10.00;10.00;;;;;21.25;62.44;99634.50;5100265;27;45427;-73
2022/05/23 09:17:44;;;;;;;;;11.33;10.00;;;;;21.27;62.25;99637.94;5100173;27;45435;-77
2022/05/23 09:20:13;;;;;;;;;9.33;9.33;;;;;21.15;62.34;99620.03;5103010;27;45536;-75
2022/05/23 09:22:50;;;;;;;;;12.00;10.33;;;;;21.26;62.44;99630.03;5117764;27;45566;-73
2022/05/23 09:25:25;;;;;;;;;9.67;9.67;;;;;21.26;62.96;99636.25;5103009;27;45489;-75
2022/05/23 09:28:06;;;;;;;;;10.00;10.00;;;;;20.96;61.79;99565.22;5100766;27;45547;-76
2022/05/23 09:30:35;;;;;;;;;14.00;9.67;;;;;21.45;61.63;99636.03;5100969;27;45488;-77
2022/05/23 09:33:01;;;;;;;;;12.00;10.33;;;;;21.39;61.88;99602.59;5099772;27;45324;-76
2022/05/23 09:35:43;;;;;;;;;16.00;12.00;;;;;21.72;61.35;99629.94;5119989;27;45509;-73
2022/05/23 09:38:23;;;;;;;;;10.67;9.33;;;;;21.86;60.64;99624.63;5102694;27;45364;-77
2022/05/23 09:40:50;;;;;;;;;11.67;11.00;;;;;21.98;60.84;99620.34;5099964;27;46281;-74
2022/05/23 09:49:30;;;;;;;;;10.33;10.00;;;;;22.14;58.61;99597.06;5120008;27;45433;-77
2022/05/23 09:52:08;;;;;;;;;12.67;12.67;;;;;22.20;58.35;99610.03;5118457;27;45456;-74
2022/05/23 09:54:50;;;;;;;;;11.00;11.00;;;;;22.26;58.29;99623.91;5119955;27;45498;-77
2022/05/23 09:57:26;;;;;;;;;12.67;11.00;;;;;22.21;58.28;99618.91;5110976;27;45354;-75
2022/05/23 10:00:06;;;;;;;;;11.00;10.67;;;;;21.98;58.29;99588.34;5118325;27;45551;-76
2022/05/23 10:02:38;;;;;;;;;11.67;10.00;;;;;21.93;57.93;99593.97;5103261;27;45494;-77
2022/05/23 10:05:26;;;;;;;;;14.33;12.00;;;;;22.01;57.98;99604.97;5117890;27;45567;-77
2022/05/23 10:08:00;;;;;;;;;10.00;10.00;;;;;22.01;58.05;99615.66;5112113;27;45519;-75
2022/05/23 10:10:33;;;;;;;;;10.67;10.67;;;;;22.05;57.65;99618.13;5113900;27;46591;-73
2022/05/23 10:13:26;;;;;;;;;12.00;12.00;;;;;21.78;58.00;99589.56;5102383;27;45418;-75
2022/05/23 10:16:00;;;;;;;;;12.00;12.00;;;;;21.95;58.29;99609.88;5103780;27;45506;-76
2022/05/23 10:18:33;;;;;;;;;14.33;12.00;;;;;21.90;58.02;99615.50;5101447;27;45336;-74
2022/05/23 10:21:01;;;;;;;;;13.33;12.00;;;;;21.88;58.10;99619.19;5102799;27;45245;-77
2022/05/23 10:23:30;;;;;;;;;13.67;11.00;;;;;21.85;58.01;99628.22;5103012;27;45529;-76
2022/05/23 10:26:11;;;;;;;;;10.00;10.00;;;;;21.87;58.43;99620.13;5101353;27;45232;-72
2022/05/23 10:28:44;;;;;;;;;12.00;10.33;;;;;21.90;58.12;99617.28;5101466;27;45422;-72
2022/05/23 10:31:29;;;;;;;;;11.33;11.33;;;;;21.69;58.15;99576.81;5117853;27;45277;-75
2022/05/23 10:34:19;;;;;;;;;15.33;11.33;;;;;21.96;57.92;99617.75;5102481;27;45357;-74
2022/05/23 10:36:54;;;;;;;;;13.00;11.67;;;;;21.85;57.66;99600.72;5094935;27;45477;-75
2022/05/23 10:42:31;;;;;;;;;34.00;31.33;;;;;22.07;57.50;99624.22;5102795;27;45498;-76
2022/05/23 10:45:26;;;;;;;;;29.00;27.67;;;;;22.09;57.50;99619.63;5098737;27;46382;-76
2022/05/23 10:48:22;;;;;;;;;62.00;51.25;;;;;22.13;57.27;99615.84;5098745;27;45376;-75
2022/05/23 10:50:56;;;;;;;;;33.67;32.00;;;;;21.79;56.85;99568.19;5103820;27;45430;-73
2022/05/23 10:54:00;;;;;;;;;30.33;27.00;;;;;22.13;57.16;99610.50;5091554;27;45367;-76
2022/05/23 10:56:47;;;;;;;;;22.67;22.00;;;;;22.14;56.93;99609.53;5094022;27;46494;-76
2022/05/23 10:59:53;;;;;;;;;27.00;24.33;;;;;22.11;57.01;99599.91;5097334;27;45433;-74
2022/05/23 11:02:30;;;;;;;;;21.00;17.00;;;;;22.10;57.18;99608.03;5095434;27;45474;-72
2022/05/23 11:05:08;;;;;;;;;16.33;15.00;;;;;21.83;57.26;99591.97;5103180;27;45549;-73
2022/05/23 11:08:01;;;;;;;;;19.33;19.33;;;;;21.81;57.55;99627.56;5097641;27;46142;-71
2022/05/23 11:11:01;;;;;;;;;16.67;16.67;;;;;21.74;58.62;99620.06;5097817;27;45580;-73
2022/05/23 11:13:49;;;;;;;;;15.67;15.67;;;;;21.60;59.41;99602.25;5075145;27;45776;-74
2022/05/23 11:16:40;;;;;;;;;17.00;17.00;;;;;21.52;59.95;99609.84;5096470;27;45735;-74
2022/05/23 11:19:41;;;;;;;;;19.33;17.33;;;;;21.28;60.42;99591.72;5095238;27;45965;-75
2022/05/23 11:22:22;;;;;;;;;20.67;17.00;;;;;21.25;60.72;99602.56;5094477;27;45344;-73
2022/05/23 11:24:56;;;;;;;;;16.67;14.67;;;;;21.26;61.29;99614.94;5095595;27;45487;-72
2022/05/23 11:35:52;;;;;;;;;16.67;15.33;;;;;21.13;62.14;99612.13;5094514;27;45541;-70
2022/05/23 11:38:20;;;;;;;;;18.00;17.33;;;;;21.14;61.99;99611.22;5095760;27;45375;-72
2022/05/23 11:40:59;;;;;;;;;14.67;13.33;;;;;21.29;61.76;99624.53;5096451;27;46350;-70
2022/05/23 11:43:27;;;;;;;;;17.00;15.33;;;;;21.23;61.76;99607.13;5088425;27;45525;-71
2022/05/23 11:46:04;;;;;;;;;15.33;15.33;;;;;21.23;61.78;99614.25;5093451;27;45407;-70
2022/05/23 11:51:30;;;;;;;;;14.33;14.33;;;;;21.42;61.91;99632.69;5093700;27;45731;-70
2022/05/23 11:54:06;;;;;;;;;20.67;18.67;;;;;21.39;61.99;99631.91;5092827;27;45529;-69
2022/05/23 11:56:41;;;;;;;;;16.33;15.33;;;;;21.36;61.84;99639.22;5095050;27;45588;-71
2022/05/23 11:59:11;;;;;;;;;17.00;16.33;;;;;21.25;61.42;99629.19;5086709;27;45349;-72
2022/05/23 12:01:38;;;;;;;;;22.33;19.33;;;;;21.12;62.01;99618.44;5095035;27;46154;-74
2022/05/23 12:04:03;;;;;;;;;15.00;15.00;;;;;21.16;62.31;99632.41;5097016;27;45549;-72
2022/05/23 12:06:29;;;;;;;;;18.33;16.33;;;;;21.14;62.29;99634.28;5097045;27;45515;-75
2022/05/23 12:09:02;;;;;;;;;18.00;18.00;;;;;21.14;62.53;99640.50;5112902;27;45535;-73
2022/05/23 12:11:45;;;;;;;;;15.67;15.33;;;;;20.90;62.52;99594.00;5098450;27;46243;-73
2022/05/23 12:14:33;;;;;;;;;15.33;15.33;;;;;20.96;62.15;99606.97;5097730;27;45396;-73
2022/05/23 12:16:58;;;;;;;;;15.67;15.67;;;;;21.14;62.00;99642.28;5097737;27;45399;-72
2022/05/23 12:19:32;;;;;;;;;17.33;16.33;;;;;21.10;61.72;99644.28;5099227;27;45448;-69
2022/05/23 12:22:25;;;;;;;;;18.33;17.00;;;;;21.01;61.68;99663.44;5098220;27;47128;-73
2022/05/23 12:25:09;;;;;;;;;14.00;14.00;;;;;20.79;61.54;99621.25;5099075;27;45324;-72
2022/05/23 12:27:44;;;;;;;;;12.67;12.00;;;;;20.97;61.53;99656.56;5098493;27;45235;-73
2022/05/23 12:30:22;;;;;;;;;12.67;12.67;;;;;20.95;61.64;99669.13;5097635;27;46408;-72
2022/05/23 12:32:51;;;;;;;;;9.33;9.33;;;;;20.85;61.20;99655.47;5098017;27;45658;-75
2022/05/23 12:35:20;;;;;;;;;16.33;14.33;;;;;20.78;61.05;99642.63;5096370;27;45326;-74
2022/05/23 12:38:12;;;;;;;;;14.00;11.00;;;;;20.79;60.84;99658.50;5097249;27;45374;-74
2022/05/23 12:40:49;;;;;;;;;10.00;9.00;;;;;20.81;60.57;99666.38;5096962;27;45567;-74
2022/05/23 12:43:41;;;;;;;;;13.67;12.33;;;;;20.89;60.53;99685.47;5097370;27;45513;-74
2022/05/23 12:46:35;;;;;;;;;12.33;12.33;;;;;20.91;60.75;99696.88;5096748;27;45443;-74